Lyman, Wyoming
Current Conditions -  °F | °C
As of 2:55 AM on Friday 28 Nov 2014 (Local Time) from KFBR Reporting Station
Clear Clear  
Wind Chill: 33°   Ceiling: Unl
Heat Index: 41°   Visibility: 10mi
Dew Point: 18°   Wind: 14mph
Humidity: 40%   Direction: 250°WSW
Pressure: 30.14"   Gusts: NA
Location:  41.33°N, 110.29°W
Report Text: KFBR 280955Z AUTO 25012KT 10SM CLR 05/M08 A3014 RMK AO2 T00481078
Loading
Personal Weather Stations






























Interactive Weather Map New forecast layout! Learn more

10-Day Weather Forecast

Advertisements
Track Severe Weather on mobile